Time;durP1;ratioP1;P1;durP2;ratioP2;P2;SDS_P1;SDS_P2;PMS_P1;PMS_P2;Temp;Humidity;BMP_temperature;BMP_pressure;BME280_temperature;BME280_humidity;BME280_pressure;Samples;Min_cycle;Max_cycle;Signal;HPM_P1;HPM_P2
2020/12/16 00:01:32;;;;;;;4.07;3.67;;;;;;;18.91;49.34;100962.00;5072865;28;20194;-59
2020/12/16 00:03:58;;;;;;;4.17;3.50;;;;;;;18.87;49.36;100968.78;5072851;28;20191;-59
2020/12/16 00:06:24;;;;;;;5.47;4.03;;;;;;;18.84;49.44;100966.41;5072140;28;20243;-59
2020/12/16 00:08:50;;;;;;;5.57;3.73;;;;;;;18.86;49.48;100964.38;5071624;28;20199;-58
2020/12/16 00:11:16;;;;;;;4.50;3.47;;;;;;;18.85;49.19;100955.41;5054037;28;20186;-58
2020/12/16 00:13:42;;;;;;;4.80;3.60;;;;;;;18.83;49.12;100964.72;5070830;28;20187;-58
2020/12/16 00:16:08;;;;;;;6.03;3.80;;;;;;;18.82;49.11;100971.16;5071401;28;20219;-69
2020/12/16 00:18:35;;;;;;;4.17;3.47;;;;;;;18.79;49.46;100971.47;5071623;28;20203;-69
2020/12/16 00:21:01;;;;;;;5.50;3.70;;;;;;;18.80;49.55;100975.88;5070476;28;20191;-69
2020/12/16 00:23:27;;;;;;;3.93;3.53;;;;;;;18.77;48.96;100973.50;5071575;28;20703;-69
2020/12/16 00:25:53;;;;;;;5.17;3.67;;;;;;;18.73;49.63;100982.97;5071345;28;20203;-69
2020/12/16 00:28:19;;;;;;;3.93;3.40;;;;;;;18.73;49.39;100980.28;5071329;28;20629;-69
2020/12/16 00:30:47;;;;;;;4.80;3.57;;;;;;;18.68;49.52;100992.44;5071463;28;20190;-69
2020/12/16 00:33:17;;;;;;;3.60;3.30;;;;;;;18.71;49.03;100988.56;5071702;28;20638;-69
2020/12/16 00:35:44;;;;;;;3.50;3.20;;;;;;;18.67;49.33;100988.03;5071439;28;20191;-69
2020/12/16 00:38:11;;;;;;;4.07;3.67;;;;;;;18.62;49.25;100984.94;5071384;28;20714;-59
2020/12/16 00:40:37;;;;;;;5.17;3.27;;;;;;;18.61;49.17;100985.94;5071310;28;20219;-63
2020/12/16 00:43:03;;;;;;;3.40;3.07;;;;;;;18.57;49.48;100981.84;5071173;28;20297;-63
2020/12/16 00:45:29;;;;;;;3.43;3.13;;;;;;;18.59;49.57;100985.25;5071147;28;20240;-63
2020/12/16 00:47:55;;;;;;;3.90;3.50;;;;;;;18.57;49.22;100991.84;5070014;28;20647;-63
2020/12/16 00:50:21;;;;;;;4.27;3.30;;;;;;;18.53;49.26;100991.31;5070062;28;20210;-58
2020/12/16 00:52:47;;;;;;;3.63;3.33;;;;;;;18.55;49.59;100992.00;5070285;28;20187;-69
2020/12/16 00:55:13;;;;;;;4.00;3.60;;;;;;;18.51;49.62;100996.06;5070225;28;20620;-69
2020/12/16 00:57:39;;;;;;;3.60;3.30;;;;;;;18.49;49.24;101000.78;5071089;28;20207;-58
2020/12/16 01:00:07;;;;;;;3.37;3.07;;;;;;;18.47;49.78;100999.25;5071003;28;20209;-58
2020/12/16 01:02:33;;;;;;;3.40;3.10;;;;;;;18.46;49.27;101000.25;5053685;28;20249;-58
2020/12/16 01:04:59;;;;;;;3.30;3.00;;;;;;;18.45;49.35;100999.38;5071182;28;20207;-58
2020/12/16 01:07:25;;;;;;;3.90;3.00;;;;;;;18.42;49.71;101002.41;5070012;28;20207;-56
2020/12/16 01:09:51;;;;;;;3.70;3.33;;;;;;;18.42;49.56;100999.72;5070263;28;20192;-63
2020/12/16 01:12:17;;;;;;;3.63;3.30;;;;;;;18.41;49.24;101008.84;5071039;28;20192;-63
2020/12/16 01:14:43;;;;;;;3.30;3.00;;;;;;;18.42;49.45;101011.41;5070456;28;20184;-63
2020/12/16 01:17:11;;;;;;;3.10;2.80;;;;;;;18.38;49.14;101007.31;5071235;28;20257;-64
2020/12/16 01:19:37;;;;;;;3.30;3.00;;;;;;;18.39;49.52;101005.44;5074645;28;20628;-60
2020/12/16 01:22:03;;;;;;;3.57;3.27;;;;;;;18.39;49.59;101010.88;5074678;28;20192;-60
2020/12/16 01:24:29;;;;;;;3.30;3.00;;;;;;;18.35;49.04;101006.78;5074426;28;20183;-59
2020/12/16 01:26:55;;;;;;;4.87;3.40;;;;;;;18.32;49.79;101010.66;5073480;28;20214;-64
2020/12/16 01:29:21;;;;;;;3.13;2.93;;;;;;;18.27;49.50;101004.88;5074662;28;20199;-70
2020/12/16 01:31:48;;;;;;;3.00;2.80;;;;;;;18.28;49.30;101003.88;5074596;28;20191;-64
2020/12/16 01:34:19;;;;;;;3.13;2.83;;;;;;;18.30;49.26;101009.13;5074511;28;20187;-58
2020/12/16 01:36:45;;;;;;;3.10;2.80;;;;;;;18.31;49.13;101013.53;5073503;28;20179;-59
2020/12/16 01:39:12;;;;;;;3.27;2.97;;;;;;;18.29;49.55;101007.44;5073179;28;20208;-70
2020/12/16 01:41:45;;;;;;;3.10;2.90;;;;;;;18.25;49.74;101006.06;5073391;28;20837;-70
2020/12/16 01:44:16;;;;;;;4.43;3.03;;;;;;;18.24;49.65;101009.78;5074585;28;20183;-70
2020/12/16 01:46:54;;;;;;;3.23;2.80;;;;;;;18.25;49.08;101016.91;5074352;28;20219;-70
2020/12/16 01:49:21;;;;;;;3.13;2.73;;;;;;;18.26;49.73;101024.00;5074041;28;20226;-70
2020/12/16 01:51:54;;;;;;;3.30;3.00;;;;;;;18.23;49.70;101016.19;5074223;28;20187;-70
2020/12/16 01:54:21;;;;;;;2.97;2.73;;;;;;;18.17;49.57;101014.09;5073277;28;20277;-59
2020/12/16 01:56:49;;;;;;;2.83;2.63;;;;;;;18.17;49.27;101011.41;5074446;28;20179;-59
2020/12/16 01:59:16;;;;;;;3.17;2.90;;;;;;;18.18;49.30;101002.25;5056487;28;20211;-61
2020/12/16 02:01:43;;;;;;;3.00;2.70;;;;;;;18.15;49.55;101014.25;5073986;28;20192;-60
2020/12/16 02:04:12;;;;;;;2.73;2.53;;;;;;;18.16;49.38;101017.81;5073838;28;20195;-59
2020/12/16 02:06:40;;;;;;;4.63;2.87;;;;;;;18.16;49.47;101017.81;5073764;28;20212;-58
2020/12/16 02:09:07;;;;;;;3.10;2.80;;;;;;;18.14;49.17;101023.41;5072819;28;20231;-60
2020/12/16 02:11:34;;;;;;;3.03;2.80;;;;;;;18.16;49.05;101015.97;5073800;28;20191;-70
2020/12/16 02:14:03;;;;;;;2.90;2.60;;;;;;;18.16;48.98;101020.53;5073817;28;20622;-64
2020/12/16 02:16:29;;;;;;;3.17;2.80;;;;;;;18.12;49.38;101024.56;5073763;28;20188;-70
2020/12/16 02:18:56;;;;;;;2.60;2.40;;;;;;;18.08;49.68;101029.47;5073473;28;20214;-69
2020/12/16 02:21:22;;;;;;;2.90;2.67;;;;;;;18.04;49.62;101031.63;5073689;28;20183;-70
2020/12/16 02:23:48;;;;;;;2.80;2.60;;;;;;;18.10;49.39;101027.44;5073641;28;20270;-70
2020/12/16 02:26:14;;;;;;;2.87;2.60;;;;;;;18.06;49.59;101024.19;5072657;28;20207;-70
2020/12/16 02:28:41;;;;;;;2.77;2.53;;;;;;;18.03;49.72;101029.94;5073372;28;20566;-70
2020/12/16 02:31:08;;;;;;;2.70;2.50;;;;;;;18.01;49.79;101029.25;5072513;28;20192;-60
2020/12/16 02:33:34;;;;;;;2.73;2.50;;;;;;;18.01;49.29;101026.53;5072404;28;20538;-60
2020/12/16 02:36:00;;;;;;;2.80;2.60;;;;;;;17.98;49.70;101018.72;5068828;28;20188;-60
2020/12/16 02:38:26;;;;;;;2.70;2.50;;;;;;;17.96;49.59;101018.00;5071957;28;20713;-60
2020/12/16 02:40:52;;;;;;;2.80;2.60;;;;;;;17.94;49.38;101011.91;5073190;28;20179;-60
2020/12/16 02:43:18;;;;;;;3.00;2.77;;;;;;;17.92;49.81;101016.63;5073153;28;20203;-60
2020/12/16 02:45:45;;;;;;;2.70;2.50;;;;;;;17.91;49.77;101014.91;5072937;28;20211;-60
2020/12/16 02:48:13;;;;;;;2.77;2.57;;;;;;;17.92;49.63;101011.19;5072884;28;20242;-60
2020/12/16 02:50:40;;;;;;;2.60;2.40;;;;;;;17.99;49.28;101011.44;5073002;28;20587;-59
2020/12/16 02:53:06;;;;;;;2.70;2.50;;;;;;;18.02;49.48;101022.81;5072011;28;20216;-58
2020/12/16 02:55:32;;;;;;;2.70;2.50;;;;;;;18.04;49.51;101028.06;5055355;28;20525;-59
2020/12/16 02:57:58;;;;;;;2.73;2.53;;;;;;;18.06;49.62;101020.63;5055168;28;20219;-59
2020/12/16 03:00:24;;;;;;;2.60;2.37;;;;;;;18.07;49.55;101027.75;5072820;28;20206;-59
2020/12/16 03:02:50;;;;;;;3.50;2.53;;;;;;;18.09;49.59;101021.16;5072698;28;20196;-59
2020/12/16 03:05:16;;;;;;;2.60;2.40;;;;;;;18.16;49.85;101025.94;5071803;28;20615;-59
2020/12/16 03:07:43;;;;;;;2.70;2.50;;;;;;;18.20;50.11;101017.34;5072589;28;20203;-59
2020/12/16 03:10:09;;;;;;;2.60;2.40;;;;;;;18.32;50.08;101015.25;5071723;28;20612;-58
2020/12/16 03:12:35;;;;;;;2.23;2.13;;;;;;;18.40;50.20;101012.56;5072600;28;20188;-59
2020/12/16 03:15:01;;;;;;;2.70;2.50;;;;;;;18.48;49.70;101015.34;5071477;28;20224;-59
2020/12/16 03:17:27;;;;;;;2.60;2.23;;;;;;;18.57;49.74;101008.97;5072346;28;20200;-59
2020/12/16 03:19:53;;;;;;;2.60;2.40;;;;;;;18.65;49.98;101000.88;5072390;28;20501;-70
2020/12/16 03:22:19;;;;;;;2.33;2.13;;;;;;;18.70;49.49;101004.00;5072324;28;20184;-70
2020/12/16 03:24:45;;;;;;;2.20;2.00;;;;;;;18.76;49.49;101010.63;5072280;28;20262;-70
2020/12/16 03:27:11;;;;;;;2.23;2.13;;;;;;;18.80;49.19;101003.00;5072281;28;20176;-70
2020/12/16 03:29:38;;;;;;;2.00;1.90;;;;;;;18.82;49.02;101000.97;5072171;28;20195;-70
2020/12/16 03:32:04;;;;;;;2.30;2.10;;;;;;;18.85;49.17;101000.66;5071274;28;20597;-60
2020/12/16 03:34:30;;;;;;;2.30;2.10;;;;;;;18.85;48.99;100990.66;5071154;28;20233;-59
2020/12/16 03:36:56;;;;;;;2.80;2.40;;;;;;;18.88;49.30;100990.31;5071194;28;20194;-59
2020/12/16 03:39:22;;;;;;;2.37;2.27;;;;;;;18.90;48.94;100998.28;5070958;28;20211;-70
2020/12/16 03:41:51;;;;;;;2.30;2.13;;;;;;;18.89;49.17;100991.16;5071610;28;20286;-64
2020/12/16 03:44:17;;;;;;;2.00;1.90;;;;;;;18.88;49.01;101000.31;5071993;28;20264;-64
2020/12/16 03:46:43;;;;;;;2.20;2.03;;;;;;;18.87;48.88;100998.63;5071946;28;20295;-70
2020/12/16 03:49:09;;;;;;;2.13;2.03;;;;;;;18.84;49.17;101001.66;5071848;28;20203;-70
2020/12/16 03:51:35;;;;;;;2.63;2.30;;;;;;;18.82;49.06;100996.41;5071865;28;20187;-70
2020/12/16 03:54:01;;;;;;;2.33;2.00;;;;;;;18.81;48.87;100993.84;5071860;28;20210;-70
2020/12/16 03:56:27;;;;;;;2.10;2.00;;;;;;;18.77;49.00;100992.50;5071753;28;20194;-70
2020/12/16 03:58:53;;;;;;;1.97;1.87;;;;;;;18.78;49.24;100999.59;5071585;28;20695;-70
2020/12/16 04:01:19;;;;;;;2.20;2.00;;;;;;;18.73;49.04;100996.53;5071682;28;20270;-59
2020/12/16 04:03:46;;;;;;;2.33;2.13;;;;;;;18.68;49.16;101000.56;5054235;28;20187;-59
2020/12/16 04:06:12;;;;;;;2.13;2.00;;;;;;;18.62;48.99;101006.63;5071571;28;20264;-59
2020/12/16 04:08:39;;;;;;;2.10;1.90;;;;;;;18.56;49.00;100996.41;5070718;28;20250;-70
2020/12/16 04:11:11;;;;;;;2.10;2.00;;;;;;;18.56;49.12;100999.13;5071532;28;20192;-59
2020/12/16 04:13:38;;;;;;;2.30;2.03;;;;;;;18.48;49.44;100996.38;5071582;28;20727;-58
2020/12/16 04:16:04;;;;;;;2.00;1.90;;;;;;;18.45;49.48;100996.66;5071493;28;20194;-59
2020/12/16 04:18:31;;;;;;;2.20;2.10;;;;;;;18.46;49.43;101003.81;5070418;28;20288;-64
2020/12/16 04:20:57;;;;;;;1.90;1.80;;;;;;;18.43;49.16;101006.81;5071443;28;20190;-64
2020/12/16 04:23:23;;;;;;;2.00;1.90;;;;;;;18.41;49.28;101003.44;5071501;28;20183;-59
2020/12/16 04:25:49;;;;;;;2.00;1.90;;;;;;;18.39;48.88;101006.31;5071417;28;20207;-62
2020/12/16 04:28:15;;;;;;;2.20;2.10;;;;;;;18.33;49.11;101006.09;5071558;28;20207;-62
2020/12/16 04:30:41;;;;;;;1.90;1.80;;;;;;;18.34;49.46;101007.81;5071447;28;20373;-68
2020/12/16 04:33:07;;;;;;;2.10;2.00;;;;;;;18.32;49.27;101002.53;5071360;28;20187;-68
2020/12/16 04:35:33;;;;;;;1.90;1.80;;;;;;;18.31;49.26;101011.69;5071240;28;20183;-69
2020/12/16 04:37:59;;;;;;;2.13;2.03;;;;;;;18.34;49.22;101002.38;5071215;28;20227;-69
2020/12/16 04:40:25;;;;;;;2.10;2.00;;;;;;;18.34;48.91;101015.94;5071251;28;20624;-63
2020/12/16 04:43:08;;;;;;;1.80;1.70;;;;;;;18.33;48.92;101014.22;5071339;28;20187;-63
2020/12/16 04:45:41;;;;;;;1.87;1.77;;;;;;;18.33;49.02;101016.94;5070441;28;20211;-58
2020/12/16 04:48:11;;;;;;;1.90;1.80;;;;;;;18.32;49.21;101020.66;5071203;28;20264;-59
2020/12/16 04:50:38;;;;;;;2.00;1.90;;;;;;;18.30;48.92;101023.53;5071078;28;20541;-58
2020/12/16 04:53:05;;;;;;;2.17;2.07;;;;;;;18.29;48.99;101015.56;5072945;28;20622;-69
2020/12/16 04:55:31;;;;;;;1.90;1.80;;;;;;;18.24;48.59;101016.03;5075272;28;20203;-69
2020/12/16 04:57:57;;;;;;;1.80;1.70;;;;;;;18.25;48.97;101015.03;5074321;28;20656;-63
2020/12/16 05:00:24;;;;;;;2.30;2.10;;;;;;;18.18;49.14;101003.09;5074087;28;20198;-63
2020/12/16 05:02:55;;;;;;;2.00;1.87;;;;;;;18.20;49.11;101011.06;5074210;28;20191;-63
2020/12/16 05:05:21;;;;;;;1.97;1.83;;;;;;;18.14;48.57;101012.56;5074992;28;20268;-69
2020/12/16 05:07:48;;;;;;;1.90;1.80;;;;;;;18.15;48.87;101008.00;5074792;28;20212;-69
2020/12/16 05:10:33;;;;;;;2.00;1.90;;;;;;;18.18;48.82;101013.09;5074948;28;20184;-59
2020/12/16 05:13:10;;;;;;;1.97;1.87;;;;;;;18.19;49.34;101006.66;5074907;28;20218;-59
2020/12/16 05:15:36;;;;;;;1.80;1.70;;;;;;;18.20;49.05;101011.06;5074823;28;20274;-59
2020/12/16 05:18:10;;;;;;;1.80;1.70;;;;;;;18.22;49.63;101014.50;5073834;28;20210;-58
2020/12/16 05:20:37;;;;;;;1.73;1.63;;;;;;;18.20;49.18;101021.91;5073925;28;20191;-69
2020/12/16 05:23:04;;;;;;;1.60;1.50;;;;;;;18.22;49.54;101014.50;5074000;28;20195;-58
2020/12/16 05:25:31;;;;;;;1.67;1.57;;;;;;;18.21;49.71;101027.16;5057201;28;20219;-58
2020/12/16 05:27:58;;;;;;;2.00;1.90;;;;;;;18.25;49.55;101022.31;5056979;28;20212;-69
2020/12/16 05:30:24;;;;;;;1.60;1.50;;;;;;;18.23;49.36;101019.75;5074448;28;20176;-63
2020/12/16 05:32:50;;;;;;;1.70;1.60;;;;;;;18.24;49.23;101017.91;5074438;28;20194;-63
2020/12/16 05:35:21;;;;;;;1.90;1.80;;;;;;;18.25;49.19;101016.91;5073532;28;20616;-59
2020/12/16 05:37:47;;;;;;;1.80;1.70;;;;;;;18.26;49.34;101021.31;5074355;28;20199;-60
2020/12/16 05:40:15;;;;;;;1.90;1.80;;;;;;;18.27;49.42;101020.28;5070486;28;20689;-58
2020/12/16 05:42:50;;;;;;;1.83;1.67;;;;;;;18.32;49.66;101017.94;5074489;28;20210;-59
2020/12/16 05:45:18;;;;;;;1.70;1.60;;;;;;;18.38;49.67;101014.59;5074271;28;20215;-59
2020/12/16 05:48:04;;;;;;;1.70;1.60;;;;;;;18.46;49.15;100998.41;5074174;28;20276;-69
2020/12/16 05:50:53;;;;;;;1.70;1.60;;;;;;;18.54;49.35;100993.03;5074059;28;20202;-60
2020/12/16 05:53:21;;;;;;;1.80;1.70;;;;;;;18.59;49.05;100992.53;5074062;28;20631;-69
2020/12/16 05:56:00;;;;;;;1.70;1.60;;;;;;;18.61;49.44;100999.47;5074151;28;20222;-60
2020/12/16 05:58:30;;;;;;;1.83;1.73;;;;;;;18.66;48.89;101012.59;5074125;28;20291;-57
2020/12/16 06:00:58;;;;;;;1.80;1.70;;;;;;;18.68;49.10;101011.41;5056718;28;20513;-57
2020/12/16 06:03:28;;;;;;;1.70;1.60;;;;;;;18.69;48.88;101013.13;5065215;28;20196;-63
2020/12/16 06:06:05;;;;;;;1.60;1.50;;;;;;;18.72;48.71;101011.13;5073566;28;20736;-64
2020/12/16 06:08:36;;;;;;;1.43;1.33;;;;;;;18.72;48.63;101017.38;5073701;28;20211;-64
2020/12/16 06:11:05;;;;;;;1.80;1.70;;;;;;;18.72;48.75;101016.53;5073040;28;20512;-63
2020/12/16 06:13:31;;;;;;;1.63;1.53;;;;;;;18.70;48.70;101025.69;5072924;28;20314;-63
2020/12/16 06:15:57;;;;;;;1.60;1.50;;;;;;;18.70;48.70;101019.41;5073792;28;20531;-63
2020/12/16 06:18:25;;;;;;;1.60;1.50;;;;;;;18.68;48.54;101022.25;5073637;28;20211;-63
2020/12/16 06:20:51;;;;;;;1.60;1.50;;;;;;;18.67;48.61;101025.97;5073937;28;20223;-62
2020/12/16 06:23:26;;;;;;;1.53;1.43;;;;;;;18.65;48.57;101022.56;5073695;28;20187;-62
2020/12/16 06:25:53;;;;;;;1.93;1.60;;;;;;;18.64;48.49;101022.75;5073436;28;20651;-62
2020/12/16 06:28:19;;;;;;;1.63;1.53;;;;;;;18.62;48.97;101027.44;5073472;28;20293;-60
2020/12/16 06:31:14;;;;;;;1.60;1.50;;;;;;;18.59;48.49;101028.63;5073599;28;20583;-69
2020/12/16 06:34:00;;;;;;;1.60;1.50;;;;;;;18.56;48.77;101042.50;5073546;28;20187;-70
2020/12/16 06:36:30;;;;;;;1.50;1.40;;;;;;;18.55;48.72;101046.22;5072870;28;20187;-70
2020/12/16 06:38:57;;;;;;;1.53;1.43;;;;;;;18.51;48.59;101052.13;5073327;28;20211;-63
2020/12/16 06:41:33;;;;;;;1.53;1.43;;;;;;;18.51;48.60;101049.41;5072313;28;20266;-69
2020/12/16 06:44:19;;;;;;;1.63;1.53;;;;;;;18.40;48.61;101051.38;5073078;28;20199;-59
2020/12/16 06:46:47;;;;;;;1.70;1.60;;;;;;;18.40;48.98;101047.81;5066171;28;20620;-69
2020/12/16 06:49:32;;;;;;;1.60;1.50;;;;;;;18.35;48.93;101061.00;5072940;28;20217;-69
2020/12/16 06:52:05;;;;;;;1.47;1.37;;;;;;;18.27;49.14;101056.38;5071950;28;20195;-59
2020/12/16 06:54:47;;;;;;;1.47;1.37;;;;;;;18.27;49.18;101053.66;5071839;28;20226;-59
2020/12/16 06:57:26;;;;;;;1.60;1.50;;;;;;;18.23;48.83;101051.44;5068670;28;20191;-59
2020/12/16 06:59:55;;;;;;;1.60;1.50;;;;;;;18.19;48.89;101058.13;5072871;28;20183;-59
2020/12/16 07:02:26;;;;;;;1.60;1.50;;;;;;;18.19;48.67;101050.00;5069417;28;20192;-60
2020/12/16 07:04:53;;;;;;;1.70;1.60;;;;;;;18.14;49.29;101050.50;5072555;28;20262;-59
2020/12/16 07:07:38;;;;;;;1.50;1.40;;;;;;;18.14;48.85;101055.06;5071713;28;20207;-60
2020/12/16 07:10:04;;;;;;;1.60;1.50;;;;;;;18.10;49.35;101058.09;5072450;28;20562;-60
2020/12/16 07:12:30;;;;;;;1.70;1.60;;;;;;;18.15;49.03;101057.59;5068513;28;20199;-59
2020/12/16 07:14:57;;;;;;;1.50;1.40;;;;;;;18.16;48.72;101053.03;5071716;28;20314;-58
2020/12/16 07:17:23;;;;;;;1.50;1.40;;;;;;;18.13;48.54;101053.34;5072280;28;20242;-57
2020/12/16 07:19:49;;;;;;;1.50;1.40;;;;;;;18.15;48.70;101054.03;5072490;28;20190;-60
2020/12/16 07:22:22;;;;;;;1.43;1.40;;;;;;;18.12;48.54;101055.22;5072290;28;20718;-62
2020/12/16 07:24:49;;;;;;;1.40;1.30;;;;;;;18.12;48.54;101051.66;5070311;28;20689;-63
2020/12/16 07:27:21;;;;;;;1.40;1.37;;;;;;;18.04;48.71;101056.00;5071909;28;20234;-64
2020/12/16 07:29:54;;;;;;;1.53;1.43;;;;;;;18.04;48.91;101061.44;5071909;28;20226;-64
2020/12/16 07:32:21;;;;;;;1.53;1.43;;;;;;;18.03;48.60;101059.72;5072277;28;20647;-64
2020/12/16 07:34:55;;;;;;;1.60;1.50;;;;;;;18.04;49.03;101061.44;5072139;28;20673;-63
2020/12/16 07:37:23;;;;;;;1.80;1.70;;;;;;;18.04;49.09;101063.28;5071898;28;20202;-63
2020/12/16 07:39:50;;;;;;;1.50;1.40;;;;;;;18.06;49.04;101069.41;5072001;28;20790;-63
2020/12/16 07:42:29;;;;;;;1.70;1.60;;;;;;;18.10;49.15;101058.09;5071986;28;20198;-64
2020/12/16 07:44:59;;;;;;;1.70;1.60;;;;;;;18.16;48.89;101063.88;5071706;28;20198;-64
2020/12/16 07:47:25;;;;;;;1.43;1.40;;;;;;;18.20;48.96;101057.13;5071801;28;20211;-64
2020/12/16 07:49:51;;;;;;;1.50;1.40;;;;;;;18.23;48.95;101057.69;5071891;28;20191;-64
2020/12/16 07:52:23;;;;;;;1.70;1.60;;;;;;;18.29;48.52;101057.06;5071813;28;20286;-64
2020/12/16 07:54:49;;;;;;;1.80;1.50;;;;;;;18.32;48.64;101058.59;5072135;28;20187;-64
2020/12/16 07:57:15;;;;;;;1.70;1.60;;;;;;;18.35;48.59;101058.28;5071764;28;20187;-63
2020/12/16 07:59:41;;;;;;;1.70;1.60;;;;;;;18.40;48.45;101062.19;5071836;28;20592;-63
2020/12/16 08:02:15;;;;;;;1.77;1.67;;;;;;;18.42;48.80;101056.63;5071640;28;20283;-70
2020/12/16 08:04:42;;;;;;;1.40;1.30;;;;;;;18.46;48.76;101055.31;5070652;28;20206;-63
2020/12/16 08:07:18;;;;;;;1.70;1.60;;;;;;;18.49;48.74;101044.16;5071745;28;20187;-63
2020/12/16 08:09:58;;;;;;;1.60;1.50;;;;;;;18.54;48.72;101049.94;5071601;28;20195;-63
2020/12/16 08:12:24;;;;;;;1.50;1.40;;;;;;;18.58;48.72;101039.63;5071746;28;20220;-58
2020/12/16 08:15:02;;;;;;;1.57;1.47;;;;;;;18.61;48.72;101039.31;5071633;28;20624;-58
2020/12/16 08:17:28;;;;;;;1.40;1.30;;;;;;;18.63;48.80;101040.88;5055649;28;20742;-58
2020/12/16 08:20:13;;;;;;;1.37;1.37;;;;;;;18.65;48.69;101044.28;5054118;28;20635;-58
2020/12/16 08:22:40;;;;;;;1.60;1.50;;;;;;;18.66;48.72;101037.84;5070726;28;20186;-58
2020/12/16 08:25:10;;;;;;;1.60;1.50;;;;;;;18.66;48.45;101043.25;5070615;28;20207;-69
2020/12/16 08:27:37;;;;;;;1.63;1.53;;;;;;;18.68;48.48;101052.09;5071211;28;20199;-70
2020/12/16 08:30:05;;;;;;;1.60;1.50;;;;;;;18.68;48.66;101043.94;5071429;28;20608;-63
2020/12/16 08:32:32;;;;;;;1.30;1.30;;;;;;;18.68;48.62;101043.94;5071439;28;20245;-63
2020/12/16 08:34:58;;;;;;;1.43;1.33;;;;;;;18.66;48.69;101045.97;5054022;28;20674;-63
2020/12/16 08:37:24;;;;;;;1.47;1.37;;;;;;;18.65;48.74;101049.69;5053646;28;20199;-58
2020/12/16 08:39:50;;;;;;;1.43;1.33;;;;;;;18.64;48.70;101045.28;5053811;28;20237;-58
2020/12/16 08:42:23;;;;;;;1.70;1.60;;;;;;;18.65;48.59;101035.28;5053576;28;20232;-58
2020/12/16 08:44:50;;;;;;;1.60;1.50;;;;;;;18.63;48.89;101037.31;5053625;28;20222;-58
2020/12/16 08:47:35;;;;;;;1.50;1.40;;;;;;;18.61;48.30;101036.59;5070282;28;20176;-58
2020/12/16 08:50:02;;;;;;;1.40;1.30;;;;;;;18.59;48.67;101038.63;5071197;28;20194;-60
2020/12/16 08:52:37;;;;;;;1.33;1.30;;;;;;;18.58;48.32;101040.47;5071281;28;20680;-60
2020/12/16 08:55:16;;;;;;;1.60;1.50;;;;;;;18.53;48.56;101040.13;5071259;28;20231;-70
2020/12/16 08:58:00;;;;;;;1.50;1.40;;;;;;;18.54;48.66;101052.66;5071529;28;20199;-64
2020/12/16 09:00:31;;;;;;;1.53;1.50;;;;;;;18.54;48.47;101052.66;5071239;28;20190;-58
2020/12/16 09:03:02;;;;;;;1.63;1.50;;;;;;;18.53;48.24;101050.09;5070184;28;20175;-58
2020/12/16 09:05:28;;;;;;;1.30;1.30;;;;;;;18.49;48.43;101051.44;5070112;28;20243;-70
2020/12/16 09:08:11;;;;;;;1.20;1.20;;;;;;;18.47;48.49;101057.03;5070975;28;20201;-69
2020/12/16 09:10:37;;;;;;;1.60;1.50;;;;;;;18.44;48.55;101056.47;5071158;28;20179;-69
2020/12/16 09:13:21;;;;;;;1.50;1.40;;;;;;;18.44;48.25;101059.16;5070937;28;20180;-70
2020/12/16 09:15:49;;;;;;;1.30;1.30;;;;;;;18.41;48.03;101057.63;5070875;28;20190;-64
2020/12/16 09:18:15;;;;;;;1.50;1.40;;;;;;;18.39;48.02;101056.94;5070887;28;20206;-69
2020/12/16 09:20:41;;;;;;;1.70;1.60;;;;;;;18.36;48.52;101060.81;5070911;28;20176;-59
2020/12/16 09:23:07;;;;;;;1.50;1.40;;;;;;;18.34;48.40;101062.00;5070822;28;20183;-58
2020/12/16 09:25:33;;;;;;;1.60;1.50;;;;;;;18.36;48.33;101062.69;5069917;28;20253;-58
2020/12/16 09:28:00;;;;;;;1.57;1.47;;;;;;;18.34;48.21;101056.56;5069820;28;20203;-58
2020/12/16 09:30:30;;;;;;;1.60;1.50;;;;;;;18.34;48.22;101052.00;5069963;28;20206;-59
2020/12/16 09:32:57;;;;;;;1.40;1.30;;;;;;;18.36;48.44;101054.56;5071049;28;20176;-63
2020/12/16 09:35:24;;;;;;;1.70;1.60;;;;;;;18.41;48.19;101052.22;5070931;28;20191;-57
2020/12/16 09:37:50;;;;;;;1.57;1.47;;;;;;;18.41;48.20;101050.34;5069883;28;20206;-58
2020/12/16 09:40:16;;;;;;;1.60;1.50;;;;;;;18.44;48.58;101056.47;5073457;28;20180;-57
2020/12/16 09:42:59;;;;;;;1.60;1.50;;;;;;;18.48;48.41;101063.28;5056810;28;20711;-69
2020/12/16 09:45:29;;;;;;;1.33;1.23;;;;;;;18.50;48.67;101062.13;5074427;28;20200;-58
2020/12/16 09:47:55;;;;;;;1.63;1.53;;;;;;;18.52;48.57;101053.84;5057303;28;20199;-59
2020/12/16 09:50:29;;;;;;;1.50;1.40;;;;;;;18.56;48.76;101060.63;5074130;28;20191;-59
2020/12/16 09:53:10;;;;;;;1.60;1.50;;;;;;;18.58;48.58;101056.75;5073191;28;20175;-59
2020/12/16 09:55:37;;;;;;;1.57;1.47;;;;;;;18.62;48.67;101055.44;5073181;28;20240;-59
2020/12/16 09:58:04;;;;;;;1.67;1.57;;;;;;;18.65;48.36;101057.81;5073981;28;20227;-63
2020/12/16 10:00:32;;;;;;;1.30;1.30;;;;;;;18.68;48.14;101059.38;5073835;28;20203;-63
2020/12/16 10:03:01;;;;;;;1.37;1.27;;;;;;;18.69;48.66;101055.63;5073874;28;20539;-58
2020/12/16 10:05:27;;;;;;;1.50;1.40;;;;;;;18.70;48.14;101051.94;5072900;28;20663;-69
2020/12/16 10:07:53;;;;;;;1.50;1.40;;;;;;;18.71;48.12;101048.22;5073123;28;20215;-69
2020/12/16 10:10:20;;;;;;;1.20;1.20;;;;;;;18.70;48.46;101041.09;5072859;28;20201;-69
2020/12/16 10:12:46;;;;;;;1.40;1.30;;;;;;;18.72;48.32;101038.22;5073954;28;20253;-69
2020/12/16 10:15:12;;;;;;;1.40;1.30;;;;;;;18.70;48.52;101028.41;5073137;28;20199;-69
2020/12/16 10:17:38;;;;;;;1.27;1.27;;;;;;;18.69;48.21;101026.69;5072915;28;20532;-71
2020/12/16 10:20:05;;;;;;;1.40;1.30;;;;;;;18.72;48.00;101021.97;5073749;28;20237;-70
2020/12/16 10:22:31;;;;;;;1.47;1.37;;;;;;;18.70;48.02;101014.00;5072826;28;20186;-70
2020/12/16 10:24:57;;;;;;;1.57;1.47;;;;;;;18.68;48.10;101015.97;5072594;28;20191;-70
2020/12/16 10:27:23;;;;;;;1.60;1.50;;;;;;;18.65;48.31;101017.16;5073484;28;20639;-70
2020/12/16 10:29:50;;;;;;;1.60;1.50;;;;;;;18.63;48.12;101021.03;5073612;28;20558;-71
2020/12/16 10:32:16;;;;;;;1.50;1.40;;;;;;;18.62;48.14;101017.47;5072515;28;20276;-70
2020/12/16 10:34:42;;;;;;;1.67;1.57;;;;;;;18.59;48.11;101012.34;5073372;28;20184;-70
2020/12/16 10:37:09;;;;;;;1.60;1.50;;;;;;;18.59;48.30;101004.22;5073332;28;20608;-70
2020/12/16 10:39:35;;;;;;;1.60;1.50;;;;;;;18.57;47.90;101008.97;5073236;28;20191;-70
2020/12/16 10:42:01;;;;;;;1.67;1.57;;;;;;;18.53;48.37;101002.16;5072333;28;20680;-70
2020/12/16 10:44:28;;;;;;;1.47;1.37;;;;;;;18.52;48.11;101005.88;5072282;28;20310;-70
2020/12/16 10:46:54;;;;;;;1.50;1.40;;;;;;;18.49;48.28;101000.78;5073182;28;20612;-70
2020/12/16 10:49:24;;;;;;;1.47;1.37;;;;;;;18.48;48.04;101001.81;5072495;28;20203;-60
2020/12/16 10:51:50;;;;;;;1.50;1.40;;;;;;;18.47;48.11;100996.53;5072668;28;20189;-61
2020/12/16 10:54:16;;;;;;;1.87;1.63;;;;;;;18.43;48.30;100996.00;5072321;28;20199;-61
2020/12/16 10:56:42;;;;;;;1.60;1.50;;;;;;;18.43;48.25;100996.00;5072994;28;20198;-61
2020/12/16 10:59:08;;;;;;;1.73;1.63;;;;;;;18.41;47.85;100989.88;5072731;28;20276;-60
2020/12/16 11:01:36;;;;;;;1.60;1.17;;;;;;;18.40;48.22;100990.88;5072841;28;20193;-60
2020/12/16 11:04:06;;;;;;;1.50;1.40;;;;;;;18.42;48.21;100994.28;5072653;28;20633;-63
2020/12/16 11:06:33;;;;;;;1.40;1.30;;;;;;;18.48;48.17;100996.38;5063894;28;20651;-67
2020/12/16 11:09:00;;;;;;;1.60;1.50;;;;;;;18.52;48.17;101000.47;5072778;28;20294;-67
2020/12/16 11:11:26;;;;;;;1.60;1.50;;;;;;;18.56;48.49;101007.25;5072696;28;20187;-72
2020/12/16 11:13:52;;;;;;;1.60;1.50;;;;;;;18.60;48.78;101008.63;5055255;28;20188;-66
2020/12/16 11:16:19;;;;;;;1.50;1.37;;;;;;;18.63;48.56;101002.91;5072478;28;20184;-64
2020/12/16 11:18:47;;;;;;;1.50;1.40;;;;;;;18.66;48.39;100997.16;5072600;28;20215;-56
2020/12/16 11:21:13;;;;;;;1.50;1.40;;;;;;;18.69;48.61;100996.00;5072472;28;20288;-54
2020/12/16 11:23:40;;;;;;;1.50;1.40;;;;;;;18.71;48.72;100994.00;5072661;28;20191;-57
2020/12/16 11:26:06;;;;;;;1.50;1.40;;;;;;;18.75;48.41;100983.66;5072339;28;20243;-55
2020/12/16 11:28:32;;;;;;;1.70;1.60;;;;;;;18.78;48.52;100981.47;5072465;28;20235;-56
2020/12/16 11:31:01;;;;;;;1.30;1.30;;;;;;;18.83;48.61;100975.56;5072135;28;20198;-57